createdAt,value
2023-04-18T00:01:23.788Z,8.07
2023-04-18T00:03:51.230Z,10.15
2023-04-18T00:06:21.075Z,9.43
2023-04-18T00:08:47.850Z,10.57
2023-04-18T00:11:14.364Z,9.40
2023-04-18T00:13:40.907Z,9.82
2023-04-18T00:16:13.259Z,9.80
2023-04-18T00:18:40.115Z,9.85
2023-04-18T00:21:08.499Z,9.73
2023-04-18T00:23:35.753Z,9.15
2023-04-18T00:26:02.280Z,8.98
2023-04-18T00:28:28.876Z,12.40
2023-04-18T00:30:55.495Z,9.88
2023-04-18T00:33:23.198Z,10.98
2023-04-18T00:35:51.648Z,8.73
2023-04-18T00:38:18.150Z,13.20
2023-04-18T00:40:44.681Z,11.45
2023-04-18T00:43:14.027Z,10.27
2023-04-18T00:45:40.792Z,10.18
2023-04-18T00:48:07.559Z,9.30
2023-04-18T00:50:34.685Z,10.38
2023-04-18T00:53:01.564Z,10.00
2023-04-18T00:55:29.446Z,10.00
2023-04-18T00:57:56.178Z,12.35
2023-04-18T01:00:24.511Z,10.05
2023-04-18T01:02:53.221Z,11.63
2023-04-18T01:05:21.328Z,12.05
2023-04-18T01:07:47.899Z,11.02
2023-04-18T01:10:14.568Z,10.70
2023-04-18T01:12:41.738Z,11.85
2023-04-18T01:15:08.625Z,10.48
2023-04-18T01:17:36.314Z,12.70
2023-04-18T01:20:06.130Z,14.02
2023-04-18T01:22:33.580Z,13.10
2023-04-18T01:25:00.181Z,14.02
2023-04-18T01:27:26.867Z,13.15
2023-04-18T01:29:53.589Z,16.02
2023-04-18T01:32:20.673Z,13.27
2023-04-18T01:34:47.740Z,15.45
2023-04-18T01:37:14.416Z,14.75
2023-04-18T01:39:40.948Z,15.57
2023-04-18T01:42:07.504Z,17.20
2023-04-18T01:44:34.166Z,16.23
2023-04-18T01:47:00.758Z,18.35
2023-04-18T01:49:27.311Z,17.98
2023-04-18T01:51:53.808Z,15.05
2023-04-18T01:54:21.330Z,16.05
2023-04-18T01:56:47.923Z,16.08
2023-04-18T01:59:14.486Z,15.10
2023-04-18T02:01:41.057Z,18.10
2023-04-18T02:04:07.711Z,17.65
2023-04-18T02:06:34.332Z,16.20
2023-04-18T02:09:00.985Z,26.88
2023-04-18T02:11:27.594Z,17.10
2023-04-18T02:13:54.256Z,17.15
2023-04-18T02:16:21.023Z,18.63
2023-04-18T02:18:47.731Z,19.85
2023-04-18T02:21:14.418Z,18.40
2023-04-18T02:23:41.141Z,18.90
2023-04-18T02:26:07.756Z,19.48
2023-04-18T02:28:34.634Z,19.98
2023-04-18T02:31:03.172Z,20.92
2023-04-18T02:33:29.974Z,18.38
2023-04-18T02:35:56.666Z,20.65
2023-04-18T02:38:23.373Z,20.17
2023-04-18T02:40:52.104Z,19.17
2023-04-18T02:43:20.680Z,21.73
2023-04-18T02:45:47.394Z,19.15
2023-04-18T02:48:14.671Z,18.65
2023-04-18T02:50:41.650Z,18.63
2023-04-18T02:53:08.392Z,22.20
2023-04-18T02:55:49.613Z,20.98
2023-04-18T02:58:17.100Z,18.67
2023-04-18T03:01:09.817Z,17.85
2023-04-18T03:03:59.739Z,17.40
2023-04-18T03:06:47.919Z,21.38
2023-04-18T03:09:15.730Z,16.48
2023-04-18T03:14:14.853Z,16.90
2023-04-18T03:16:48.944Z,20.33
2023-04-18T03:19:19.923Z,19.45
2023-04-18T03:21:46.750Z,17.83
2023-04-18T03:24:13.740Z,19.17
2023-04-18T03:26:43.089Z,21.23
2023-04-18T03:29:10.401Z,18.45
2023-04-18T03:31:37.144Z,17.10
2023-04-18T03:34:04.177Z,18.17
2023-04-18T03:36:31.404Z,18.55
2023-04-18T03:38:58.658Z,17.40
2023-04-18T03:41:26.440Z,20.25
2023-04-18T03:43:55.797Z,18.67
2023-04-18T03:46:24.607Z,16.63
2023-04-18T03:48:53.790Z,19.95
2023-04-18T03:51:21.269Z,17.38
2023-04-18T03:53:48.126Z,20.08
2023-04-18T03:56:16.621Z,19.73
2023-04-18T03:58:51.662Z,18.50
2023-04-18T04:01:20.271Z,16.35
2023-04-18T04:03:47.072Z,22.95
2023-04-18T04:06:14.281Z,18.20
2023-04-18T04:08:41.541Z,18.70
2023-04-18T04:11:08.226Z,21.83
2023-04-18T04:13:36.063Z,18.88
2023-04-18T04:16:02.979Z,17.92
2023-04-18T04:18:31.517Z,22.77
2023-04-18T04:21:00.827Z,20.70
2023-04-18T04:23:53.636Z,21.67
2023-04-18T04:26:35.707Z,19.25
2023-04-18T04:29:13.960Z,22.08
2023-04-18T04:31:42.699Z,22.83
2023-04-18T04:34:09.729Z,19.00
2023-04-18T04:36:36.452Z,21.67
2023-04-18T04:39:05.897Z,20.10
2023-04-18T04:41:53.467Z,21.52
2023-04-18T04:44:26.121Z,20.45
2023-04-18T04:46:54.590Z,23.88
2023-04-18T04:49:25.285Z,23.00
2023-04-18T04:51:52.127Z,21.45
2023-04-18T04:54:20.045Z,21.55
2023-04-18T04:56:47.041Z,22.33
2023-04-18T04:59:14.151Z,21.40
2023-04-18T05:01:44.236Z,22.83
2023-04-18T05:04:11.474Z,23.60
2023-04-18T05:06:40.262Z,24.27
2023-04-18T05:09:07.177Z,24.38
2023-04-18T05:11:33.818Z,21.08
2023-04-18T05:14:00.510Z,19.42
2023-04-18T05:16:27.187Z,23.33
2023-04-18T05:18:53.955Z,25.85
2023-04-18T05:21:20.717Z,24.23
2023-04-18T05:23:47.448Z,25.42
2023-04-18T05:26:14.128Z,24.70
2023-04-18T05:28:41.484Z,23.58
2023-04-18T05:31:08.426Z,28.73
2023-04-18T05:33:35.316Z,25.88
2023-04-18T05:36:02.213Z,27.67
2023-04-18T05:38:28.944Z,23.63
2023-04-18T05:40:56.083Z,25.02
2023-04-18T05:43:23.116Z,26.30
2023-04-18T05:45:52.342Z,26.55
2023-04-18T05:48:19.385Z,26.77
2023-04-18T05:50:46.130Z,25.58
2023-04-18T05:53:13.158Z,22.17
2023-04-18T05:55:40.953Z,30.63
2023-04-18T05:58:07.894Z,25.17
2023-04-18T06:00:36.036Z,26.15
2023-04-18T06:03:03.000Z,26.63
2023-04-18T06:05:30.331Z,25.17
2023-04-18T06:07:57.895Z,26.77
2023-04-18T06:10:24.668Z,23.55
2023-04-18T06:12:51.468Z,22.42
2023-04-18T06:15:18.304Z,27.02
2023-04-18T06:17:45.131Z,23.20
2023-04-18T06:20:12.102Z,23.30
2023-04-18T06:22:38.837Z,24.52
2023-04-18T06:25:06.071Z,23.60
2023-04-18T06:27:32.956Z,23.42
2023-04-18T06:29:59.706Z,26.05
2023-04-18T06:32:26.671Z,20.27
2023-04-18T06:34:53.755Z,23.35
2023-04-18T06:37:20.706Z,22.17
2023-04-18T06:39:47.537Z,21.77
2023-04-18T06:42:14.333Z,26.60
2023-04-18T06:44:44.670Z,26.02
2023-04-18T06:47:11.585Z,22.27
2023-04-18T06:49:38.313Z,23.48
2023-04-18T06:52:05.160Z,21.40
2023-04-18T06:54:31.833Z,22.60
2023-04-18T06:56:59.385Z,20.60
2023-04-18T06:59:26.802Z,23.15
2023-04-18T07:01:53.741Z,24.33
2023-04-18T07:04:20.792Z,22.90
2023-04-18T07:06:47.778Z,23.98
2023-04-18T07:09:14.473Z,25.77
2023-04-18T07:11:41.245Z,24.38
2023-04-18T07:14:08.051Z,22.00
2023-04-18T07:16:34.882Z,22.77
2023-04-18T07:19:01.676Z,26.73
2023-04-18T07:21:28.320Z,24.95
2023-04-18T07:23:55.361Z,23.10
2023-04-18T07:26:22.265Z,20.80
2023-04-18T07:28:49.345Z,20.70
2023-04-18T07:31:16.510Z,25.45
2023-04-18T07:33:43.552Z,23.40
2023-04-18T07:36:10.417Z,22.05
2023-04-18T07:38:37.233Z,23.23
2023-04-18T07:41:04.112Z,22.95
2023-04-18T07:43:30.898Z,25.33
2023-04-18T07:45:57.603Z,23.33
2023-04-18T07:48:25.508Z,21.17
2023-04-18T07:50:52.619Z,21.70
2023-04-18T07:53:19.860Z,23.88
2023-04-18T07:55:46.919Z,24.92
2023-04-18T07:58:14.351Z,27.38
2023-04-18T08:00:42.635Z,24.92
2023-04-18T08:03:12.817Z,23.33
2023-04-18T08:05:41.171Z,22.67
2023-04-18T08:08:11.797Z,24.55
2023-04-18T08:10:38.613Z,25.17
2023-04-18T08:13:06.388Z,25.20
2023-04-18T08:15:33.149Z,26.38
2023-04-18T08:18:00.965Z,22.10
2023-04-18T08:20:28.944Z,24.17
2023-04-18T08:25:25.732Z,21.73
2023-04-18T08:27:52.457Z,28.92
2023-04-18T08:30:19.265Z,25.27
2023-04-18T08:32:46.034Z,23.23
2023-04-18T08:35:12.803Z,24.75
2023-04-18T08:37:39.463Z,27.02
2023-04-18T08:40:07.490Z,24.42
2023-04-18T08:42:35.329Z,23.48
2023-04-18T08:45:02.605Z,25.85
2023-04-18T08:47:30.077Z,25.35
2023-04-18T08:49:57.399Z,22.80
2023-04-18T08:52:25.914Z,22.90
2023-04-18T08:54:52.559Z,20.95
2023-04-18T08:57:26.851Z,24.20
2023-04-18T08:59:55.379Z,25.42
2023-04-18T09:02:28.592Z,27.67
2023-04-18T09:04:55.843Z,25.50
2023-04-18T09:07:29.570Z,26.45
2023-04-18T09:09:57.359Z,30.83
2023-04-18T09:12:26.366Z,24.45
2023-04-18T09:15:09.434Z,31.15
2023-04-18T09:17:41.683Z,27.10
2023-04-18T09:20:10.931Z,27.70
2023-04-18T09:22:51.433Z,25.98
2023-04-18T09:25:40.789Z,29.92
2023-04-18T09:28:28.914Z,24.50
2023-04-18T09:30:57.600Z,25.10
2023-04-18T09:33:32.537Z,24.10
2023-04-18T09:36:37.365Z,25.52
2023-04-18T09:39:04.151Z,26.70
2023-04-18T09:41:32.604Z,28.02
2023-04-18T09:44:14.529Z,28.02
2023-04-18T09:46:44.489Z,29.77
2023-04-18T09:49:12.971Z,27.83
2023-04-18T09:51:41.674Z,25.05
2023-04-18T09:54:11.059Z,28.13
2023-04-18T09:56:42.236Z,25.48
2023-04-18T09:59:09.899Z,27.48
2023-04-18T10:01:37.505Z,26.75
2023-04-18T10:04:06.732Z,28.70
2023-04-18T10:06:35.166Z,25.38
2023-04-18T10:09:05.971Z,27.92
2023-04-18T10:11:32.948Z,23.80
2023-04-18T10:14:04.690Z,28.25
2023-04-18T10:19:26.269Z,24.65
2023-04-18T10:21:58.431Z,30.33
2023-04-18T10:24:52.856Z,28.70
2023-04-18T10:27:48.659Z,25.75
2023-04-18T10:30:16.667Z,27.23
2023-04-18T10:32:43.502Z,24.63
2023-04-18T10:35:10.789Z,22.73
2023-04-18T10:37:50.861Z,24.63
2023-04-18T10:40:32.390Z,24.58
2023-04-18T10:43:06.933Z,26.08
2023-04-18T10:45:43.075Z,22.23
2023-04-18T10:48:43.091Z,24.33
2023-04-18T10:51:21.930Z,22.55
2023-04-18T10:54:00.790Z,21.13
2023-04-18T10:56:29.011Z,23.40
2023-04-18T10:59:01.222Z,21.55
2023-04-18T11:01:32.777Z,23.90
2023-04-18T11:04:00.899Z,22.55
2023-04-18T11:06:28.509Z,22.77
2023-04-18T11:09:14.571Z,22.83
2023-04-18T11:11:41.927Z,20.17
2023-04-18T11:14:08.677Z,24.60
2023-04-18T11:16:35.428Z,23.23
2023-04-18T11:19:21.447Z,20.88
2023-04-18T11:21:48.295Z,18.48
2023-04-18T11:24:24.619Z,21.50
2023-04-18T11:26:55.741Z,20.02
2023-04-18T11:29:23.039Z,18.58
2023-04-18T11:31:52.442Z,20.65
2023-04-18T11:34:19.940Z,21.17
2023-04-18T11:36:51.283Z,17.60
2023-04-18T11:39:19.059Z,19.25
2023-04-18T11:41:50.505Z,18.75
2023-04-18T11:44:18.560Z,15.88
2023-04-18T11:46:45.235Z,18.83
2023-04-18T11:49:32.286Z,16.55
2023-04-18T11:52:00.108Z,17.83
2023-04-18T11:54:44.238Z,18.75
2023-04-18T11:57:28.679Z,17.30
2023-04-18T12:00:00.841Z,18.13
2023-04-18T12:02:49.509Z,17.73
2023-04-18T12:05:32.778Z,18.88
2023-04-18T12:08:09.869Z,18.95
2023-04-18T12:10:50.903Z,17.50
2023-04-18T12:13:18.597Z,15.18
2023-04-18T12:15:47.166Z,14.75
2023-04-18T12:18:18.047Z,16.73
2023-04-18T12:20:50.579Z,13.75
2023-04-18T12:23:38.911Z,15.70
2023-04-18T12:26:12.239Z,14.93
2023-04-18T12:28:39.065Z,16.65
2023-04-18T12:31:07.303Z,13.43
2023-04-18T12:33:36.763Z,13.40
2023-04-18T12:36:05.550Z,13.68
2023-04-18T12:38:32.330Z,15.63
2023-04-18T12:40:59.038Z,14.43
2023-04-18T12:43:26.001Z,18.77
2023-04-18T12:45:52.702Z,13.07
2023-04-18T12:48:19.645Z,15.68
2023-04-18T12:50:46.531Z,11.68
2023-04-18T12:53:13.471Z,10.75
2023-04-18T12:55:40.516Z,11.13
2023-04-18T12:58:07.469Z,11.93
2023-04-18T13:00:34.424Z,11.65
2023-04-18T13:03:01.499Z,13.40
2023-04-18T13:05:32.978Z,13.02
2023-04-18T13:10:34.744Z,13.27
2023-04-18T13:13:01.958Z,10.88
2023-04-18T13:15:31.741Z,9.55
2023-04-18T13:18:05.411Z,10.25
2023-04-18T13:20:44.603Z,10.60
2023-04-18T13:23:11.424Z,7.85
2023-04-18T13:25:38.713Z,7.85
2023-04-18T13:28:05.594Z,8.63
2023-04-18T13:30:32.395Z,7.35
2023-04-18T13:32:59.847Z,8.10
2023-04-18T13:35:29.750Z,9.13
2023-04-18T13:37:56.581Z,9.15
2023-04-18T13:40:25.604Z,6.88
2023-04-18T13:42:55.277Z,7.85
2023-04-18T13:45:22.428Z,7.57
2023-04-18T13:47:52.505Z,6.57
2023-04-18T13:50:22.924Z,6.80
2023-04-18T13:52:54.793Z,7.65
2023-04-18T13:55:22.067Z,7.53
2023-04-18T13:57:48.835Z,8.98
2023-04-18T14:00:17.134Z,6.75
2023-04-18T14:02:44.327Z,7.22
2023-04-18T14:05:11.493Z,6.90
2023-04-18T14:07:38.622Z,6.93
2023-04-18T14:10:06.128Z,7.75
2023-04-18T14:12:33.094Z,6.10
2023-04-18T14:14:59.955Z,5.97
2023-04-18T14:17:27.235Z,7.18
2023-04-18T14:19:54.355Z,8.45
2023-04-18T14:22:22.328Z,7.10
2023-04-18T14:24:52.402Z,6.07
2023-04-18T14:27:19.359Z,6.65
2023-04-18T14:29:49.504Z,7.65
2023-04-18T14:32:16.500Z,8.40
2023-04-18T14:34:43.677Z,7.82
2023-04-18T14:37:10.819Z,6.60
2023-04-18T14:39:38.161Z,7.70
2023-04-18T14:42:05.518Z,6.88
2023-04-18T14:44:33.713Z,7.65
2023-04-18T14:47:01.554Z,6.82
2023-04-18T14:49:28.442Z,7.10
2023-04-18T14:51:55.457Z,7.75
2023-04-18T14:54:23.480Z,6.60
2023-04-18T14:56:50.445Z,5.97
2023-04-18T14:59:17.665Z,5.80
2023-04-18T15:01:45.036Z,5.97
2023-04-18T15:04:12.083Z,7.32
2023-04-18T15:06:39.067Z,6.20
2023-04-18T15:09:06.675Z,6.22
2023-04-18T15:11:33.360Z,5.75
2023-04-18T15:14:00.141Z,6.47
2023-04-18T15:16:27.224Z,5.10
2023-04-18T15:18:54.008Z,6.43
2023-04-18T15:21:21.301Z,6.03
2023-04-18T15:23:48.230Z,6.40
2023-04-18T15:26:15.887Z,5.95
2023-04-18T15:28:43.418Z,7.32
2023-04-18T15:31:10.927Z,5.22
2023-04-18T15:33:38.707Z,10.05
2023-04-18T15:36:05.813Z,7.55
2023-04-18T15:38:34.204Z,6.80
2023-04-18T15:41:01.501Z,6.57
2023-04-18T15:43:29.337Z,6.03
2023-04-18T15:45:56.208Z,5.20
2023-04-18T15:48:34.375Z,6.70
2023-04-18T15:51:01.600Z,5.93
2023-04-18T15:53:28.981Z,11.43
2023-04-18T15:55:56.174Z,6.18
2023-04-18T15:58:24.036Z,6.38
2023-04-18T16:00:52.045Z,4.72
2023-04-18T16:03:19.766Z,6.72
2023-04-18T16:05:54.094Z,6.80
2023-04-18T16:08:23.285Z,5.57
2023-04-18T16:10:52.319Z,6.88
2023-04-18T16:13:21.323Z,6.57
2023-04-18T16:15:54.754Z,6.07
2023-04-18T16:18:25.393Z,7.05
2023-04-18T16:20:52.874Z,4.88
2023-04-18T16:23:20.537Z,5.00
2023-04-18T16:25:47.772Z,11.15
2023-04-18T16:28:14.937Z,6.00
2023-04-18T16:30:43.920Z,6.22
2023-04-18T16:33:11.127Z,6.25
2023-04-18T16:35:38.953Z,5.40
2023-04-18T16:38:06.478Z,5.03
2023-04-18T16:40:34.993Z,5.72
2023-04-18T16:43:02.507Z,6.43
2023-04-18T16:45:29.582Z,5.35
2023-04-18T16:48:00.067Z,6.70
2023-04-18T16:50:27.240Z,5.60
2023-04-18T16:52:54.340Z,5.18
2023-04-18T16:55:21.518Z,10.00
2023-04-18T16:57:48.979Z,4.68
2023-04-18T17:00:17.161Z,6.25
2023-04-18T17:02:44.326Z,5.15
2023-04-18T17:05:11.205Z,6.55
2023-04-18T17:07:39.965Z,6.88
2023-04-18T17:10:09.842Z,5.45
2023-04-18T17:12:37.574Z,5.25
2023-04-18T17:15:04.871Z,5.65
2023-04-18T17:17:31.701Z,4.43
2023-04-18T17:20:02.689Z,5.78
2023-04-18T17:22:29.660Z,6.55
2023-04-18T17:24:56.588Z,4.82
2023-04-18T17:27:23.867Z,6.32
2023-04-18T17:29:51.114Z,5.78
2023-04-18T17:32:18.323Z,4.93
2023-04-18T17:34:45.432Z,6.07
2023-04-18T17:37:12.306Z,6.90
2023-04-18T17:39:39.899Z,4.93
2023-04-18T17:42:06.779Z,7.45
2023-04-18T17:44:33.713Z,6.03
2023-04-18T17:47:02.210Z,6.07
2023-04-18T17:49:34.513Z,6.78
2023-04-18T17:52:02.680Z,7.28
2023-04-18T17:54:29.824Z,6.15
2023-04-18T17:56:57.811Z,6.18
2023-04-18T17:59:25.352Z,8.30
2023-04-18T18:01:53.248Z,6.00
2023-04-18T18:04:22.880Z,7.22
2023-04-18T18:06:56.379Z,5.72
2023-04-18T18:10:05.489Z,5.60
2023-04-18T18:12:41.982Z,6.38
2023-04-18T18:15:09.869Z,7.05
2023-04-18T18:17:36.757Z,6.43
2023-04-18T18:20:12.842Z,7.13
2023-04-18T18:22:39.509Z,6.03
2023-04-18T18:25:07.395Z,7.28
2023-04-18T18:27:34.100Z,6.45
2023-04-18T18:30:00.920Z,7.40
2023-04-18T18:32:27.775Z,6.70
2023-04-18T18:34:54.623Z,6.57
2023-04-18T18:37:26.628Z,6.28
2023-04-18T18:39:56.564Z,7.78
2023-04-18T18:42:24.202Z,6.25
2023-04-18T18:44:51.396Z,8.38
2023-04-18T18:47:19.152Z,6.95
2023-04-18T18:49:46.707Z,6.78
2023-04-18T18:52:13.656Z,6.18
2023-04-18T18:54:40.923Z,7.13
2023-04-18T18:57:08.808Z,7.47
2023-04-18T18:59:36.068Z,7.07
2023-04-18T19:02:03.030Z,7.82
2023-04-18T19:04:30.413Z,4.85
2023-04-18T19:06:59.925Z,6.50
2023-04-18T19:09:26.826Z,8.05
2023-04-18T19:11:55.173Z,7.00
2023-04-18T19:14:22.032Z,7.50
2023-04-18T19:16:49.129Z,7.15
2023-04-18T19:19:17.505Z,8.05
2023-04-18T19:21:47.390Z,6.03
2023-04-18T19:24:14.685Z,6.63
2023-04-18T19:26:42.101Z,6.75
2023-04-18T19:29:10.780Z,7.03
2023-04-18T19:31:38.016Z,6.88
2023-04-18T19:34:05.501Z,6.60
2023-04-18T19:36:32.707Z,7.25
2023-04-18T19:38:59.518Z,6.53
2023-04-18T19:41:27.146Z,7.47
2023-04-18T19:43:57.814Z,5.90
2023-04-18T19:46:24.830Z,6.47
2023-04-18T19:48:51.880Z,8.40
2023-04-18T19:51:18.658Z,6.65
2023-04-18T19:53:45.847Z,7.88
2023-04-18T19:56:14.414Z,8.65
2023-04-18T19:58:49.582Z,7.75
2023-04-18T20:01:18.655Z,7.97
2023-04-18T20:03:46.965Z,8.15
2023-04-18T20:06:14.182Z,8.00
2023-04-18T20:08:47.367Z,7.53
2023-04-18T20:11:14.369Z,8.18
2023-04-18T20:13:42.081Z,6.78
2023-04-18T20:16:11.196Z,6.70
2023-04-18T20:18:41.722Z,7.50
2023-04-18T20:21:11.068Z,9.13
2023-04-18T20:23:38.289Z,7.10
2023-04-18T20:26:05.144Z,6.43
2023-04-18T20:28:36.446Z,7.15
2023-04-18T20:31:03.620Z,6.57
2023-04-18T20:33:30.280Z,8.60
2023-04-18T20:35:58.911Z,7.18
2023-04-18T20:38:30.470Z,8.07
2023-04-18T20:40:58.805Z,5.90
2023-04-18T20:43:26.052Z,6.50
2023-04-18T20:45:53.865Z,7.55
2023-04-18T20:48:20.982Z,6.90
2023-04-18T20:50:51.420Z,7.40
2023-04-18T20:53:20.747Z,7.30
2023-04-18T20:55:48.753Z,6.35
2023-04-18T20:58:15.843Z,6.53
2023-04-18T21:00:44.674Z,6.50
2023-04-18T21:03:15.542Z,7.07
2023-04-18T21:05:44.180Z,7.88
2023-04-18T21:08:11.490Z,7.25
2023-04-18T21:10:38.454Z,9.25
2023-04-18T21:13:05.275Z,6.93
2023-04-18T21:15:32.071Z,7.47
2023-04-18T21:17:59.814Z,6.32
2023-04-18T21:20:26.564Z,7.38
2023-04-18T21:22:53.533Z,6.85
2023-04-18T21:25:21.475Z,7.28
2023-04-18T21:27:50.669Z,7.22
2023-04-18T21:30:18.086Z,9.45
2023-04-18T21:32:46.022Z,11.63
2023-04-18T21:35:13.336Z,6.22
2023-04-18T21:37:40.269Z,7.25
2023-04-18T21:40:07.937Z,7.53
2023-04-18T21:42:35.715Z,7.68
2023-04-18T21:45:02.659Z,5.70
2023-04-18T21:47:29.542Z,8.13
2023-04-18T21:49:56.532Z,7.78
2023-04-18T21:52:23.293Z,7.95
2023-04-18T21:54:49.988Z,9.50
2023-04-18T21:57:16.760Z,8.82
2023-04-18T21:59:43.526Z,8.70
2023-04-18T22:02:10.545Z,8.05
2023-04-18T22:04:38.118Z,7.13
2023-04-18T22:07:04.973Z,6.97
2023-04-18T22:09:36.264Z,7.82
2023-04-18T22:12:05.651Z,8.68
2023-04-18T22:14:32.381Z,8.38
2023-04-18T22:16:59.365Z,9.23
2023-04-18T22:19:27.584Z,9.52
2023-04-18T22:21:54.263Z,9.48
2023-04-18T22:24:22.123Z,8.23
2023-04-18T22:26:49.990Z,9.15
2023-04-18T22:29:16.666Z,10.48
2023-04-18T22:31:43.802Z,8.95
2023-04-18T22:34:10.686Z,9.68
2023-04-18T22:36:37.837Z,10.38
2023-04-18T22:39:04.690Z,11.27
2023-04-18T22:41:31.406Z,9.55
2023-04-18T22:43:58.101Z,12.23
2023-04-18T22:46:24.816Z,12.25
2023-04-18T22:48:51.542Z,11.63
2023-04-18T22:51:18.230Z,11.98
2023-04-18T22:53:47.120Z,11.00
2023-04-18T22:56:13.615Z,11.82
2023-04-18T22:58:40.108Z,10.88
2023-04-18T23:01:06.664Z,11.57
2023-04-18T23:03:36.591Z,11.25
2023-04-18T23:06:03.296Z,12.00
2023-04-18T23:08:29.794Z,12.70
2023-04-18T23:10:56.326Z,11.75
2023-04-18T23:13:22.879Z,13.00
2023-04-18T23:15:51.658Z,11.90
2023-04-18T23:18:18.166Z,12.25
2023-04-18T23:20:46.975Z,12.93
2023-04-18T23:23:13.493Z,11.68
2023-04-18T23:25:40.061Z,14.13
2023-04-18T23:28:08.829Z,15.73
2023-04-18T23:30:36.802Z,12.13
2023-04-18T23:33:03.531Z,14.10
2023-04-18T23:35:30.122Z,12.15
2023-04-18T23:37:57.179Z,12.02
2023-04-18T23:40:23.748Z,13.25
2023-04-18T23:42:50.401Z,14.70
2023-04-18T23:45:17.002Z,13.13
2023-04-18T23:47:45.897Z,12.93
2023-04-18T23:50:14.783Z,13.27
2023-04-18T23:52:41.307Z,15.00
2023-04-18T23:55:08.209Z,15.32
2023-04-18T23:57:34.709Z,14.45
